createdAt,value
2019-05-11T00:04:49.618Z,93.90
2019-05-11T00:07:18.358Z,94.50
2019-05-11T00:09:57.658Z,94.70
2019-05-11T00:12:17.730Z,94.80
2019-05-11T00:14:46.507Z,94.70
2019-05-11T00:17:15.671Z,94.80
2019-05-11T00:19:44.528Z,95.00
2019-05-11T00:22:13.393Z,94.50
2019-05-11T00:27:10.503Z,94.40
2019-05-11T00:29:39.518Z,94.70
2019-05-11T00:32:08.586Z,94.70
2019-05-11T00:34:37.343Z,94.50
2019-05-11T00:37:06.162Z,94.50
2019-05-11T00:39:34.974Z,94.70
2019-05-11T00:42:03.862Z,94.90
2019-05-11T00:44:32.675Z,94.60
2019-05-11T00:49:29.775Z,94.70
2019-05-11T00:51:58.525Z,95.10
2019-05-11T00:54:27.305Z,95.10
2019-05-11T00:56:56.122Z,95.30
2019-05-11T00:59:24.902Z,95.20
2019-05-11T01:01:53.711Z,95.10
2019-05-11T01:04:22.502Z,95.20
2019-05-11T01:06:51.287Z,95.00
2019-05-11T01:11:48.500Z,94.80
2019-05-11T01:14:17.220Z,95.10
2019-05-11T01:16:46.145Z,95.10
2019-05-11T01:19:14.901Z,94.90
2019-05-11T01:21:43.795Z,94.70
2019-05-11T01:24:12.669Z,94.40
2019-05-11T01:26:41.402Z,94.00
2019-05-11T01:34:07.330Z,94.10
2019-05-11T01:36:36.151Z,94.40
2019-05-11T01:39:06.585Z,94.60
2019-05-11T01:41:35.462Z,94.70
2019-05-11T01:44:04.220Z,94.80
2019-05-11T01:46:33.562Z,94.70
2019-05-11T01:49:02.392Z,94.10
2019-05-11T01:53:59.521Z,94.20
2019-05-11T01:56:28.199Z,94.20
2019-05-11T01:58:56.899Z,94.70
2019-05-11T02:01:25.790Z,95.20
2019-05-11T02:03:54.545Z,96.70
2019-05-11T02:06:23.286Z,97.50
2019-05-11T02:08:52.194Z,97.80
2019-05-11T02:11:21.039Z,98.10
2019-05-11T02:16:18.204Z,98.20
2019-05-11T02:18:46.913Z,98.10
2019-05-11T02:21:15.717Z,98.50
2019-05-11T02:23:44.403Z,98.40
2019-05-11T02:26:13.165Z,98.40
2019-05-11T02:28:41.873Z,99.00
2019-05-11T02:31:10.674Z,98.60
2019-05-11T02:33:39.861Z,98.00
2019-05-11T02:38:37.300Z,97.70
2019-05-11T02:41:06.363Z,97.50
2019-05-11T02:43:35.239Z,98.20
2019-05-11T02:46:04.101Z,97.90
2019-05-11T02:48:33.181Z,97.00
2019-05-11T02:51:02.306Z,96.60
2019-05-11T02:53:31.442Z,96.50
2019-05-11T02:56:00.271Z,95.90
2019-05-11T03:00:57.988Z,96.00
2019-05-11T03:03:26.953Z,96.50
2019-05-11T03:05:56.053Z,96.70
2019-05-11T03:08:25.277Z,96.80
2019-05-11T03:10:54.231Z,96.60
2019-05-11T03:13:23.216Z,96.20
2019-05-11T03:15:52.108Z,96.40
2019-05-11T03:20:49.712Z,96.20
2019-05-11T03:23:18.483Z,96.30
2019-05-11T03:25:47.170Z,96.10
2019-05-11T03:28:15.935Z,96.20
2019-05-11T03:30:44.748Z,96.40
2019-05-11T03:33:13.521Z,96.50
2019-05-11T03:35:42.291Z,96.30
2019-05-11T03:38:11.005Z,95.80
2019-05-11T03:43:08.024Z,95.90
2019-05-11T03:45:36.714Z,96.20
2019-05-11T03:48:05.446Z,96.40
2019-05-11T03:50:34.314Z,96.40
2019-05-11T03:53:03.018Z,96.30
2019-05-11T03:55:31.720Z,96.60
2019-05-11T03:58:00.414Z,96.60
2019-05-11T04:00:29.201Z,96.70
2019-05-11T04:05:26.319Z,96.90
2019-05-11T04:07:55.120Z,97.00
2019-05-11T04:10:25.460Z,97.40
2019-05-11T04:12:54.549Z,97.70
2019-05-11T04:15:23.286Z,97.50
2019-05-11T04:17:52.028Z,97.50
2019-05-11T04:20:20.720Z,97.70
2019-05-11T04:22:49.437Z,97.40
2019-05-11T04:27:46.562Z,96.70
2019-05-11T04:30:15.320Z,97.40
2019-05-11T04:32:44.105Z,97.70
2019-05-11T04:35:12.844Z,97.90
2019-05-11T04:37:41.619Z,97.30
2019-05-11T04:40:10.388Z,96.80
2019-05-11T04:42:54.399Z,96.80
2019-05-11T04:45:09.581Z,96.10
2019-05-11T04:50:06.935Z,95.80
2019-05-11T04:52:35.659Z,95.90
2019-05-11T04:55:04.341Z,95.80
2019-05-11T04:57:33.041Z,95.70
2019-05-11T05:00:01.774Z,95.30
2019-05-11T05:02:30.685Z,95.60
2019-05-11T05:04:59.569Z,95.60
2019-05-11T05:09:56.773Z,96.10
2019-05-11T05:12:25.483Z,95.80
2019-05-11T05:14:54.197Z,95.70
2019-05-11T05:17:22.915Z,96.70
2019-05-11T05:19:51.716Z,94.40
2019-05-11T05:22:20.406Z,94.30
2019-05-11T05:24:49.114Z,94.80
2019-05-11T05:27:17.854Z,93.00
2019-05-11T05:32:14.931Z,92.90
2019-05-11T05:34:43.647Z,93.20
2019-05-11T05:37:12.341Z,93.20
2019-05-11T05:39:41.046Z,94.00
2019-05-11T05:42:09.775Z,93.70
2019-05-11T05:44:38.499Z,93.40
2019-05-11T05:47:07.263Z,93.50
2019-05-11T05:49:35.960Z,92.20
2019-05-11T05:54:33.030Z,92.20
2019-05-11T05:57:01.917Z,91.80
2019-05-11T05:59:30.798Z,91.70
2019-05-11T06:01:59.556Z,91.50
2019-05-11T06:04:28.532Z,91.60
2019-05-11T06:06:57.233Z,90.80
2019-05-11T06:09:26.156Z,91.10
2019-05-11T06:11:54.874Z,90.40
2019-05-11T06:16:52.163Z,90.50
2019-05-11T06:19:20.921Z,91.40
2019-05-11T06:21:49.637Z,91.60
2019-05-11T06:24:18.367Z,91.00
2019-05-11T06:26:47.274Z,88.80
2019-05-11T06:29:16.029Z,89.40
2019-05-11T06:31:44.874Z,89.50
2019-05-11T06:36:42.078Z,88.70
2019-05-11T06:39:11.050Z,85.30
2019-05-11T06:41:39.801Z,82.30
2019-05-11T06:44:08.530Z,80.50
2019-05-11T06:46:37.322Z,80.50
2019-05-11T06:49:06.031Z,79.40
2019-05-11T06:51:34.830Z,80.80
2019-05-11T06:54:03.517Z,77.90
2019-05-11T06:59:00.722Z,78.30
2019-05-11T07:01:29.725Z,76.20
2019-05-11T07:03:58.443Z,77.70
2019-05-11T07:06:30.496Z,74.30
2019-05-11T07:08:57.683Z,74.20
2019-05-11T07:11:26.473Z,73.00
2019-05-11T07:13:55.252Z,74.00
2019-05-11T07:16:24.071Z,72.70
2019-05-11T07:21:21.234Z,70.50
2019-05-11T07:23:49.950Z,69.00
2019-05-11T07:26:18.688Z,67.90
2019-05-11T07:28:47.472Z,69.20
2019-05-11T07:31:16.184Z,69.70
2019-05-11T07:33:44.941Z,70.80
2019-05-11T07:36:13.730Z,71.10
2019-05-11T07:38:42.523Z,72.70
2019-05-11T07:43:39.621Z,72.50
2019-05-11T07:46:08.428Z,70.60
2019-05-11T07:48:38.752Z,69.80
2019-05-11T07:51:08.874Z,71.90
2019-05-11T07:53:38.198Z,69.00
2019-05-11T07:56:08.296Z,71.70
2019-05-11T07:58:38.807Z,70.20
2019-05-11T08:01:08.662Z,67.90
2019-05-11T08:06:08.889Z,70.20
2019-05-11T08:08:38.413Z,70.30
2019-05-11T08:11:08.162Z,69.90
2019-05-11T08:13:38.842Z,70.90
2019-05-11T08:16:08.279Z,73.60
2019-05-11T08:18:38.757Z,74.20
2019-05-11T08:21:08.821Z,71.90
2019-05-11T08:23:37.879Z,69.80
2019-05-11T08:31:28.590Z,68.90
2019-05-11T08:33:58.291Z,69.50
2019-05-11T08:36:28.850Z,69.70
2019-05-11T08:38:58.505Z,70.10
2019-05-11T08:41:28.149Z,69.60
2019-05-11T08:43:58.679Z,69.60
2019-05-11T08:46:28.036Z,70.20
2019-05-11T08:48:59.312Z,69.60
2019-05-11T08:53:58.316Z,69.80
2019-05-11T08:56:28.932Z,69.70
2019-05-11T08:58:58.827Z,70.40
2019-05-11T09:01:28.695Z,69.50
2019-05-11T09:03:58.388Z,70.30
2019-05-11T09:06:28.438Z,71.10
2019-05-11T09:08:58.336Z,71.30
2019-05-11T09:11:28.390Z,68.80
2019-05-11T09:16:28.920Z,69.60
2019-05-11T09:18:58.086Z,68.80
2019-05-11T09:21:28.154Z,68.10
2019-05-11T09:23:57.850Z,69.60
2019-05-11T09:26:28.624Z,71.00
2019-05-11T09:28:58.216Z,71.70
2019-05-11T09:31:27.988Z,71.10
2019-05-11T09:33:58.454Z,71.10
2019-05-11T09:38:58.144Z,71.60
2019-05-11T09:41:28.922Z,71.90
2019-05-11T09:43:58.706Z,69.60
2019-05-11T09:46:28.013Z,69.50
2019-05-11T09:48:58.796Z,70.80
2019-05-11T09:51:28.741Z,71.90
2019-05-11T09:53:58.789Z,72.50
2019-05-11T09:56:28.895Z,91.40
2019-05-11T10:01:29.473Z,69.20
2019-05-11T10:03:58.511Z,68.60
2019-05-11T10:06:28.170Z,67.00
2019-05-11T10:08:58.119Z,68.30
2019-05-11T10:11:28.263Z,69.40
2019-05-11T10:13:57.799Z,69.90
2019-05-11T10:16:28.188Z,69.50
2019-05-11T10:18:59.137Z,69.10
2019-05-11T10:23:57.995Z,69.50
2019-05-11T10:26:27.909Z,71.80
2019-05-11T10:28:58.559Z,71.70
2019-05-11T10:31:29.662Z,73.40
2019-05-11T10:33:58.473Z,74.90
2019-05-11T10:36:27.993Z,74.70
2019-05-11T10:38:58.822Z,78.00
2019-05-11T10:41:28.509Z,80.60
2019-05-11T10:46:28.816Z,82.30
2019-05-11T10:48:58.701Z,85.60
2019-05-11T10:51:28.819Z,88.40
2019-05-11T10:53:57.800Z,90.00
2019-05-11T10:56:28.386Z,91.90
2019-05-11T10:58:58.654Z,91.50
2019-05-11T11:01:28.516Z,92.40
2019-05-11T11:03:58.744Z,92.50
2019-05-11T11:08:57.906Z,92.40
2019-05-11T11:11:27.777Z,94.40
2019-05-11T11:13:58.452Z,93.60
2019-05-11T11:16:36.766Z,94.70
2019-05-11T11:18:58.799Z,95.70
2019-05-11T11:21:28.092Z,95.30
2019-05-11T11:23:58.704Z,93.60
2019-05-11T11:26:28.529Z,92.20
2019-05-11T11:31:28.791Z,92.90
2019-05-11T11:33:58.511Z,94.40
2019-05-11T11:36:28.470Z,93.20
2019-05-11T11:38:58.377Z,92.90
2019-05-11T11:41:29.887Z,91.90
2019-05-11T11:43:58.638Z,92.20
2019-05-11T11:46:27.864Z,92.80
2019-05-11T11:48:58.122Z,92.00
2019-05-11T11:53:58.372Z,92.90
2019-05-11T11:56:28.390Z,94.20
2019-05-11T11:58:57.995Z,92.60
2019-05-11T12:01:28.093Z,93.40
2019-05-11T12:03:58.090Z,93.10
2019-05-11T12:06:28.035Z,92.80
2019-05-11T12:08:58.493Z,92.70
2019-05-11T12:11:27.931Z,92.60
2019-05-11T12:16:28.203Z,94.70
2019-05-11T12:18:57.839Z,93.70
2019-05-11T12:21:27.742Z,93.70
2019-05-11T12:23:58.447Z,93.90
2019-05-11T12:26:28.190Z,93.00
2019-05-11T12:28:57.669Z,94.70
2019-05-11T12:31:28.873Z,95.30
2019-05-11T12:33:58.626Z,97.20
2019-05-11T12:38:58.072Z,97.10
2019-05-11T12:41:28.058Z,97.20
2019-05-11T12:43:57.762Z,97.90
2019-05-11T12:46:36.294Z,98.30
2019-05-11T12:49:03.977Z,98.30
2019-05-11T12:51:32.666Z,98.60
2019-05-11T12:54:01.372Z,99.10
2019-05-11T12:56:30.070Z,99.90
2019-05-11T13:01:29.069Z,99.90
2019-05-11T13:03:58.091Z,99.90
2019-05-11T13:06:27.903Z,99.90
2019-05-11T13:08:58.736Z,99.90
2019-05-11T13:11:28.605Z,99.90
2019-05-11T13:13:59.876Z,99.90
2019-05-11T13:16:28.888Z,99.90
2019-05-11T13:18:57.769Z,99.90
2019-05-11T13:23:57.682Z,99.90
2019-05-11T13:26:28.355Z,97.00
2019-05-11T13:28:58.384Z,98.00
2019-05-11T13:31:27.825Z,99.90
2019-05-11T13:33:58.573Z,99.90
2019-05-11T13:36:28.633Z,94.80
2019-05-11T13:38:58.741Z,94.50
2019-05-11T13:41:28.194Z,94.20
2019-05-11T13:46:28.309Z,95.90
2019-05-11T13:48:57.918Z,98.20
2019-05-11T13:51:28.527Z,98.30
2019-05-11T13:53:58.431Z,98.70
2019-05-11T13:56:28.445Z,99.00
2019-05-11T13:59:07.013Z,99.90
2019-05-11T14:01:37.970Z,99.90
2019-05-11T14:04:08.478Z,99.90
2019-05-11T14:06:37.870Z,99.80
2019-05-11T14:11:38.867Z,99.90
2019-05-11T14:14:07.760Z,97.20
2019-05-11T14:16:37.869Z,97.60
2019-05-11T14:19:08.589Z,96.90
2019-05-11T14:21:38.492Z,96.90
2019-05-11T14:24:07.920Z,97.60
2019-05-11T14:26:38.597Z,97.00
2019-05-11T14:29:08.529Z,98.10
2019-05-11T14:34:08.822Z,98.30
2019-05-11T14:36:38.863Z,97.90
2019-05-11T14:39:08.664Z,97.10
2019-05-11T14:41:38.282Z,98.30
2019-05-11T14:44:08.928Z,98.60
2019-05-11T14:46:38.458Z,98.60
2019-05-11T14:49:07.886Z,96.90
2019-05-11T14:51:39.112Z,96.20
2019-05-11T14:56:38.125Z,96.10
2019-05-11T14:59:09.007Z,95.00
2019-05-11T15:01:38.385Z,94.10
2019-05-11T15:04:09.090Z,94.60
2019-05-11T15:06:38.843Z,94.10
2019-05-11T15:09:08.336Z,94.70
2019-05-11T15:11:38.861Z,95.30
2019-05-11T15:14:08.255Z,94.50
2019-05-11T15:19:08.012Z,94.50
2019-05-11T15:21:38.749Z,94.60
2019-05-11T15:24:09.073Z,93.10
2019-05-11T15:26:38.256Z,94.70
2019-05-11T15:29:08.103Z,93.70
2019-05-11T15:31:38.107Z,91.00
2019-05-11T15:34:08.548Z,92.00
2019-05-11T15:36:38.623Z,91.70
2019-05-11T15:44:13.471Z,91.10
2019-05-11T15:46:42.249Z,89.00
2019-05-11T15:49:11.014Z,89.00
2019-05-11T15:51:41.261Z,86.80
2019-05-11T15:54:10.128Z,83.50
2019-05-11T15:56:38.822Z,83.90
2019-05-11T15:59:08.605Z,86.20
2019-05-11T16:04:09.077Z,82.50
2019-05-11T16:06:37.951Z,83.90
2019-05-11T16:09:08.346Z,81.70
2019-05-11T16:11:38.833Z,83.80
2019-05-11T16:14:08.645Z,81.50
2019-05-11T16:16:39.049Z,80.00
2019-05-11T16:19:14.510Z,81.00
2019-05-11T16:21:38.607Z,81.90
2019-05-11T16:26:36.984Z,83.00
2019-05-11T16:29:11.068Z,84.00
2019-05-11T16:31:37.900Z,84.20
2019-05-11T16:34:08.031Z,80.70
2019-05-11T16:36:38.880Z,84.10
2019-05-11T16:39:10.502Z,87.40
2019-05-11T16:41:38.904Z,89.20
2019-05-11T16:44:08.022Z,89.00
2019-05-11T16:49:09.430Z,91.20
2019-05-11T16:51:38.859Z,92.90
2019-05-11T16:54:07.870Z,92.80
2019-05-11T16:56:38.295Z,92.30
2019-05-11T16:59:08.165Z,92.90
2019-05-11T17:01:37.911Z,92.50
2019-05-11T17:04:06.846Z,90.70
2019-05-11T17:06:38.273Z,89.10
2019-05-11T17:11:38.319Z,90.30
2019-05-11T17:14:08.452Z,90.70
2019-05-11T17:16:38.633Z,91.40
2019-05-11T17:19:08.055Z,91.50
2019-05-11T17:21:38.121Z,91.80
2019-05-11T17:24:07.526Z,91.70
2019-05-11T17:26:38.338Z,92.50
2019-05-11T17:29:06.681Z,92.20
2019-05-11T17:34:04.053Z,92.60
2019-05-11T17:36:32.770Z,93.70
2019-05-11T17:39:01.553Z,93.80
2019-05-11T17:41:30.307Z,93.20
2019-05-11T17:43:59.123Z,93.30
2019-05-11T17:46:28.030Z,92.60
2019-05-11T17:48:56.829Z,92.20
2019-05-11T17:53:54.163Z,91.80
2019-05-11T17:56:22.861Z,91.60
2019-05-11T17:58:51.566Z,91.30
2019-05-11T18:01:20.420Z,91.30
2019-05-11T18:03:49.207Z,91.70
2019-05-11T18:06:18.455Z,91.40
2019-05-11T18:08:47.833Z,91.60
2019-05-11T18:11:18.528Z,90.20
2019-05-11T18:16:18.721Z,90.00
2019-05-11T18:18:48.321Z,90.50
2019-05-11T18:21:18.861Z,87.90
2019-05-11T18:23:48.108Z,88.10
2019-05-11T18:26:18.105Z,89.30
2019-05-11T18:28:48.265Z,87.70
2019-05-11T18:31:18.210Z,88.40
2019-05-11T18:33:48.702Z,85.70
2019-05-11T18:38:48.731Z,86.90
2019-05-11T18:41:17.605Z,88.60
2019-05-11T18:43:48.412Z,90.00
2019-05-11T18:46:16.747Z,87.50
2019-05-11T18:48:45.517Z,88.60
2019-05-11T18:51:14.213Z,90.30
2019-05-11T18:53:43.037Z,90.60
2019-05-11T18:56:11.773Z,91.10
2019-05-11T19:01:08.961Z,91.90
2019-05-11T19:03:38.550Z,92.50
2019-05-11T19:06:08.887Z,93.00
2019-05-11T19:08:38.441Z,93.70
2019-05-11T19:11:09.161Z,94.10
2019-05-11T19:13:38.708Z,94.80
2019-05-11T19:16:08.627Z,94.80
2019-05-11T19:18:38.750Z,95.30
2019-05-11T19:23:38.145Z,94.50
2019-05-11T19:26:08.362Z,95.20
2019-05-11T19:28:38.504Z,95.70
2019-05-11T19:31:10.876Z,96.40
2019-05-11T19:33:38.269Z,95.80
2019-05-11T19:36:07.883Z,96.00
2019-05-11T19:38:38.386Z,96.70
2019-05-11T19:41:08.109Z,96.40
2019-05-11T19:46:08.873Z,96.40
2019-05-11T19:48:38.446Z,97.10
2019-05-11T19:51:10.900Z,96.70
2019-05-11T19:53:38.684Z,95.80
2019-05-11T19:56:07.916Z,96.30
2019-05-11T19:58:38.056Z,96.30
2019-05-11T20:01:08.659Z,96.70
2019-05-11T20:03:37.893Z,96.00
2019-05-11T20:08:37.046Z,96.10
2019-05-11T20:11:08.088Z,95.80
2019-05-11T20:13:38.631Z,95.80
2019-05-11T20:16:08.312Z,95.90
2019-05-11T20:18:37.158Z,95.70
2019-05-11T20:21:16.553Z,95.40
2019-05-11T20:23:37.927Z,95.30
2019-05-11T20:28:37.858Z,95.50
2019-05-11T20:31:08.039Z,95.90
2019-05-11T20:33:38.505Z,95.60
2019-05-11T20:36:08.728Z,95.40
2019-05-11T20:38:38.350Z,95.50
2019-05-11T20:41:08.317Z,95.40
2019-05-11T20:43:37.397Z,94.00
2019-05-11T20:46:08.051Z,94.40
2019-05-11T20:53:38.754Z,94.00
2019-05-11T20:56:08.562Z,93.80
2019-05-11T20:58:59.277Z,93.30
2019-05-11T21:01:29.960Z,93.60
2019-05-11T21:03:58.861Z,94.00
2019-05-11T21:06:29.493Z,93.90
2019-05-11T21:08:58.229Z,93.40
2019-05-11T21:11:26.959Z,93.30
2019-05-11T21:18:52.451Z,93.10
2019-05-11T21:21:21.157Z,93.80
2019-05-11T21:23:50.229Z,93.80
2019-05-11T21:26:19.977Z,94.10
2019-05-11T21:28:48.803Z,94.10
2019-05-11T21:31:18.574Z,94.00
2019-05-11T21:33:47.569Z,93.70
2019-05-11T21:38:48.293Z,94.10
2019-05-11T21:41:16.987Z,94.70
2019-05-11T21:43:48.187Z,94.20
2019-05-11T21:46:18.020Z,94.90
2019-05-11T21:48:47.803Z,94.90
2019-05-11T21:51:18.173Z,94.20
2019-05-11T21:53:48.656Z,94.20
2019-05-11T21:56:18.806Z,93.70
2019-05-11T22:01:18.355Z,94.00
2019-05-11T22:03:47.949Z,93.90
2019-05-11T22:06:16.859Z,93.70
2019-05-11T22:08:48.212Z,93.50
2019-05-11T22:11:17.851Z,93.40
2019-05-11T22:13:48.423Z,93.70
2019-05-11T22:16:17.118Z,93.10
2019-05-11T22:18:45.847Z,92.40
2019-05-11T22:23:42.878Z,92.50
2019-05-11T22:26:14.519Z,92.80
2019-05-11T22:28:42.095Z,92.60
2019-05-11T22:31:10.798Z,93.00
2019-05-11T22:33:39.551Z,93.80
2019-05-11T22:36:08.330Z,94.50
2019-05-11T22:38:38.691Z,94.20
2019-05-11T22:41:09.053Z,93.80
2019-05-11T22:46:06.915Z,93.80
2019-05-11T22:48:38.005Z,94.50
2019-05-11T22:51:08.013Z,94.50
2019-05-11T22:53:44.749Z,94.50
2019-05-11T22:56:07.126Z,94.40
2019-05-11T22:58:35.991Z,94.80
2019-05-11T23:01:04.710Z,95.90
2019-05-11T23:03:33.729Z,96.90
2019-05-11T23:08:30.902Z,96.70
2019-05-11T23:10:59.682Z,97.30
2019-05-11T23:13:28.512Z,97.30
2019-05-11T23:15:58.407Z,97.40
2019-05-11T23:18:28.610Z,97.30
2019-05-11T23:20:58.393Z,97.80
2019-05-11T23:23:28.298Z,98.30
2019-05-11T23:28:28.761Z,98.50
2019-05-11T23:30:58.264Z,99.10
2019-05-11T23:33:27.921Z,99.40
2019-05-11T23:35:58.789Z,99.60
2019-05-11T23:38:28.202Z,99.80
2019-05-11T23:40:58.727Z,99.90
2019-05-11T23:43:29.755Z,99.90
2019-05-11T23:45:58.137Z,99.90
2019-05-11T23:53:28.190Z,99.90
2019-05-11T23:55:57.925Z,99.90
2019-05-11T23:58:28.192Z,99.90
